Time,TemperatureF,DewpointF,PressureIn,WindDirection,WindDirectionDegrees,WindSpeedMPH,WindSpeedGustMPH,Humidity,HourlyPrecipIn,Conditions,Clouds,dailyrainin,SoftwareType,DateUTC
2013-03-31 00:00:00,42.4,33.7,25.25,North,0,0.0,3.1,71,0.00,,---,0.00,VWS V14.01,2013-03-31 07:00:00,
2013-03-31 00:20:00,41.5,32.1,25.25,North,0,0.0,2.7,69,0.00,,---,0.00,VWS V14.01,2013-03-31 07:20:00,
2013-03-31 00:40:00,39.2,31.6,25.25,North,0,0.0,2.2,74,0.00,,---,0.00,VWS V14.01,2013-03-31 07:40:00,
2013-03-31 01:00:00,37.6,31.7,25.25,North,0,0.0,2.7,79,0.00,,---,0.00,VWS V14.01,2013-03-31 08:00:00,
2013-03-31 01:20:00,37.2,32.2,25.25,North,0,0.0,2.7,82,0.00,,---,0.00,VWS V14.01,2013-03-31 08:20:00,
2013-03-31 01:40:00,37.0,29.5,25.25,North,0,0.0,3.6,74,0.00,,---,0.00,VWS V14.01,2013-03-31 08:40:00,
2013-03-31 02:00:00,36.0,30.7,25.25,North,0,2.7,2.7,81,0.00,,---,0.00,VWS V14.01,2013-03-31 09:00:00,
2013-03-31 02:20:00,36.0,30.1,25.22,North,0,0.0,2.7,79,0.00,,---,0.00,VWS V14.01,2013-03-31 09:20:00,
2013-03-31 02:40:00,36.5,28.7,25.22,North,0,0.0,0.0,73,0.00,,---,0.00,VWS V14.01,2013-03-31 09:40:00,
2013-03-31 03:00:00,36.3,28.2,25.22,North,0,2.7,3.1,72,0.00,,---,0.00,VWS V14.01,2013-03-31 10:00:00,
2013-03-31 03:20:00,35.8,28.0,25.22,North,0,0.0,3.1,73,0.00,,---,0.00,VWS V14.01,2013-03-31 10:20:00,
2013-03-31 03:40:00,36.1,27.0,25.22,North,0,2.7,3.6,69,0.00,,---,0.00,VWS V14.01,2013-03-31 10:40:00,
2013-03-31 04:00:00,36.5,27.3,25.22,North,10,0.0,3.6,69,0.00,,---,0.00,VWS V14.01,2013-03-31 11:00:00,
2013-03-31 04:20:00,35.6,26.8,25.19,NNW,340,0.0,3.6,70,0.00,,---,0.00,VWS V14.01,2013-03-31 11:20:00,
2013-03-31 04:40:00,34.7,26.6,25.19,NW,323,0.0,4.0,72,0.00,,---,0.00,VWS V14.01,2013-03-31 11:40:00,
2013-03-31 05:00:00,34.2,26.1,25.22,NNW,342,0.0,4.0,72,0.00,,---,0.00,VWS V14.01,2013-03-31 12:00:00,
2013-03-31 05:20:00,34.3,26.3,25.19,NNW,345,2.7,3.1,72,0.00,,---,0.00,VWS V14.01,2013-03-31 12:20:00,
2013-03-31 05:40:00,34.5,26.8,25.19,North,0,0.0,3.1,73,0.00,,---,0.00,VWS V14.01,2013-03-31 12:40:00,
2013-03-31 06:00:00,38.8,32.9,25.19,SE,142,2.7,5.4,79,0.00,,---,0.00,VWS V14.01,2013-03-31 13:00:00,
2013-03-31 06:20:00,43.5,41.1,25.19,SE,130,2.7,6.3,91,0.00,,---,0.00,VWS V14.01,2013-03-31 13:20:00,
2013-03-31 06:40:00,42.4,37.0,25.19,South,182,2.7,4.0,81,0.00,,---,0.00,VWS V14.01,2013-03-31 13:40:00,
2013-03-31 07:00:00,42.3,38.7,25.22,NW,322,0.0,3.6,87,0.00,,---,0.00,VWS V14.01,2013-03-31 14:00:00,
2013-03-31 07:20:00,43.9,40.3,25.22,NW,318,4.0,4.0,87,0.00,,---,0.00,VWS V14.01,2013-03-31 14:20:00,
2013-03-31 07:40:00,45.3,35.8,25.22,SSW,203,0.0,6.3,69,0.00,,---,0.00,VWS V14.01,2013-03-31 14:40:00,
2013-03-31 08:00:00,47.3,36.5,25.19,SW,232,4.5,6.3,66,0.00,,---,0.00,VWS V14.01,2013-03-31 15:00:00,
2013-03-31 08:20:00,48.9,35.7,25.22,South,172,4.9,8.1,60,0.00,,---,0.00,VWS V14.01,2013-03-31 15:20:00,
2013-03-31 08:40:00,50.0,31.6,25.22,SSW,202,5.4,8.3,49,0.00,,---,0.00,VWS V14.01,2013-03-31 15:40:00,
2013-03-31 09:00:00,51.8,31.7,25.22,SSW,206,3.6,8.3,46,0.00,,---,0.00,VWS V14.01,2013-03-31 16:00:00,
2013-03-31 09:20:00,53.1,33.9,25.22,SE,140,5.4,9.6,48,0.00,,---,0.00,VWS V14.01,2013-03-31 16:20:00,
2013-03-31 09:40:00,54.5,37.7,25.22,SSE,152,7.2,8.1,53,0.00,,---,0.00,VWS V14.01,2013-03-31 16:40:00,
2013-03-31 10:00:00,56.5,38.1,25.22,SSW,197,3.6,12.8,50,0.00,,---,0.00,VWS V14.01,2013-03-31 17:00:00,
2013-03-31 10:20:00,59.2,39.0,25.22,SSW,198,8.1,8.7,47,0.00,,---,0.00,VWS V14.01,2013-03-31 17:20:00,
2013-03-31 10:40:00,59.4,39.2,25.25,South,183,5.8,11.4,47,0.00,,---,0.00,VWS V14.01,2013-03-31 17:40:00,
2013-03-31 11:00:00,59.7,37.8,25.25,South,185,5.4,10.5,44,0.00,,---,0.00,VWS V14.01,2013-03-31 18:00:00,
2013-03-31 11:20:00,61.7,39.6,25.25,South,182,5.4,9.6,44,0.00,,---,0.00,VWS V14.01,2013-03-31 18:20:00,
2013-03-31 11:40:00,61.0,38.9,25.25,SSE,167,2.7,10.1,44,0.00,,---,0.00,VWS V14.01,2013-03-31 18:40:00,
2013-03-31 12:00:00,60.6,38.6,25.25,SSW,204,3.6,11.9,44,0.00,,---,0.00,VWS V14.01,2013-03-31 19:00:00,
2013-03-31 12:20:00,61.2,39.1,25.25,WSW,237,4.9,8.7,44,0.00,,---,0.00,VWS V14.01,2013-03-31 19:20:00,
2013-03-31 12:40:00,61.3,39.3,25.25,SW,222,8.1,10.5,44,0.00,,---,0.00,VWS V14.01,2013-03-31 19:40:00,
2013-03-31 13:00:00,62.4,40.2,25.25,South,190,4.0,10.5,44,0.00,,---,0.00,VWS V14.01,2013-03-31 20:00:00,
2013-03-31 13:20:00,62.4,40.2,25.22,SW,217,6.3,10.5,44,0.00,,---,0.00,VWS V14.01,2013-03-31 20:20:00,
2013-03-31 13:40:00,65.1,43.3,25.22,SW,223,7.6,10.5,45,0.00,,---,0.00,VWS V14.01,2013-03-31 20:40:00,
2013-03-31 14:00:00,64.2,41.3,25.22,South,182,6.3,11.0,43,0.00,,---,0.00,VWS V14.01,2013-03-31 21:00:00,
2013-03-31 14:20:00,63.1,40.3,25.22,West,261,4.0,11.0,43,0.00,,---,0.00,VWS V14.01,2013-03-31 21:20:00,
2013-03-31 14:40:00,65.8,42.7,25.22,WSW,258,5.8,14.5,43,0.00,,---,0.00,VWS V14.01,2013-03-31 21:40:00,
2013-03-31 15:00:00,67.3,43.4,25.22,SW,223,7.6,11.4,42,0.00,,---,0.00,VWS V14.01,2013-03-31 22:00:00,
2013-03-31 15:20:00,65.1,42.1,25.19,SSW,205,4.9,10.1,43,0.00,,---,0.00,VWS V14.01,2013-03-31 22:20:00,
2013-03-31 15:40:00,60.8,39.9,25.22,SE,138,4.9,10.5,46,0.00,,---,0.00,VWS V14.01,2013-03-31 22:40:00,
2013-03-31 16:00:00,55.9,40.5,25.19,WSW,250,5.8,11.9,56,0.00,,---,0.00,VWS V14.01,2013-03-31 23:00:00,
2013-03-31 16:20:00,58.3,40.8,25.19,West,262,6.7,11.0,52,0.00,,---,0.00,VWS V14.01,2013-03-31 23:20:00,
2013-03-31 16:40:00,58.6,41.1,25.19,West,261,11.4,11.4,52,0.00,,---,0.00,VWS V14.01,2013-03-31 23:40:00,
2013-03-31 17:00:00,58.5,38.3,25.19,WSW,239,4.9,13.2,47,0.00,,---,0.00,VWS V14.01,2013-04-01 00:00:00,
2013-03-31 17:20:00,57.2,39.8,25.19,SW,224,4.0,10.1,52,0.00,,---,0.00,VWS V14.01,2013-04-01 00:20:00,
2013-03-31 17:40:00,56.8,40.9,25.19,South,187,7.6,11.9,55,0.00,,---,0.00,VWS V14.01,2013-04-01 00:40:00,
2013-03-31 18:00:00,53.2,41.0,25.19,NNE,33,3.6,11.0,63,0.00,,---,0.00,VWS V14.01,2013-04-01 01:00:00,
2013-03-31 18:20:00,49.6,41.0,25.19,South,191,5.4,10.1,72,0.00,,---,0.00,VWS V14.01,2013-04-01 01:20:00,
2013-03-31 18:40:00,48.0,40.8,25.19,SSW,200,2.7,8.7,76,0.00,,---,0.00,VWS V14.01,2013-04-01 01:40:00,
2013-03-31 19:00:00,46.4,42.1,25.19,South,189,5.8,10.1,85,0.00,,---,0.00,VWS V14.01,2013-04-01 02:00:00,
2013-03-31 19:20:00,45.7,43.2,25.19,SW,218,5.4,9.2,91,0.00,,---,0.00,VWS V14.01,2013-04-01 02:20:00,
2013-03-31 19:40:00,45.0,42.8,25.19,SSW,212,5.4,10.1,92,0.00,,---,0.00,VWS V14.01,2013-04-01 02:40:00,
2013-03-31 20:00:00,44.6,43.5,25.19,SSW,198,4.9,10.5,96,0.00,,---,0.00,VWS V14.01,2013-04-01 03:00:00,
2013-03-31 20:20:00,43.9,42.8,25.19,SSW,206,2.7,8.1,96,0.00,,---,0.00,VWS V14.01,2013-04-01 03:20:00,
2013-03-31 20:40:00,43.7,42.9,25.19,SW,231,4.9,8.3,97,0.00,,---,0.00,VWS V14.01,2013-04-01 03:40:00,
2013-03-31 21:00:00,43.5,42.7,25.19,West,280,3.1,8.3,97,0.00,,---,0.00,VWS V14.01,2013-04-01 04:00:00,
2013-03-31 21:20:00,43.5,43.0,25.19,SSW,207,4.0,7.2,98,0.00,,---,0.00,VWS V14.01,2013-04-01 04:20:00,
2013-03-31 21:40:00,43.0,42.5,25.19,SSW,200,4.5,8.7,98,0.00,,---,0.00,VWS V14.01,2013-04-01 04:40:00,
2013-03-31 22:00:00,42.8,42.3,25.19,SW,221,4.0,8.3,98,0.00,,---,0.00,VWS V14.01,2013-04-01 05:00:00,
2013-03-31 22:20:00,42.3,41.7,25.19,WNW,286,3.1,8.7,98,0.00,,---,0.00,VWS V14.01,2013-04-01 05:20:00,
2013-03-31 22:40:00,41.7,40.1,25.19,West,262,0.0,8.1,94,0.00,,---,0.00,VWS V14.01,2013-04-01 05:40:00,
2013-03-31 23:00:00,41.9,39.8,25.19,SSW,201,3.1,6.3,92,0.00,,---,0.00,VWS V14.01,2013-04-01 06:00:00,
2013-03-31 23:20:00,41.2,38.2,25.19,SSW,196,4.0,7.6,89,0.00,,---,0.00,VWS V14.01,2013-04-01 06:20:00,
2013-03-31 23:40:00,41.0,37.1,25.19,South,177,5.4,8.3,86,0.00,,---,0.00,VWS V14.01,2013-04-01 06:40:00,